Stations météo

réclame
Mon MeteoGroup
Retie, Belgique (6464): Température de l'air & dewpoint: 18.08.2019 00:00:00 - 24.08.2019 00:00:00 (CEST)Retie, Belgique (6464): Vitesse du vent & gusts: 18.08.2019 00:00:00 - 24.08.2019 00:00:00 (CEST)Retie, Belgique (6464): Direction du vent: 18.08.2019 00:00:00 - 24.08.2019 00:00:00 (CEST)Retie, Belgique (6464): reduced air pressure: 18.08.2019 00:00:00 - 24.08.2019 00:00:00 (CEST)Retie, Belgique (6464): Ensoleillement: 18.08.2019 00:00:00 - 24.08.2019 00:00:00 (CEST)Retie, Belgique (6464): Quantités de précipitations: 18.08.2019 00:00:00 - 24.08.2019 00:00:00 (CEST)
Date & Time tt [°C] td [°C] ff [km/h] ff [knt] fx [km/h] fx [knt] dd ppp [hPa] sd [min] rr [mm]
24.08.2019 00:00:00 15,1 13,8 0 0 5 3 N 1023,1 0 0,0
23.08.2019 23:00:00 15,9 14,3 0 0 6 3 N 1023,5 0 0,0
23.08.2019 22:00:00 17,4 14,3 4 2 8 4 NNW 1023,4 0 0,0
23.08.2019 21:00:00 20,0 14,9 0 0 8 4 N 1023,4 0 0,0
23.08.2019 20:00:00 23,3 14,4 4 2 10 6 N 1023,3 56 0,0
23.08.2019 19:00:00 25,0 14,2 4 2 13 7 NE 1023,5 60 0,0
23.08.2019 18:00:00 26,1 13,2 6 3 14 8 NNE 1023,9 60 0,0
23.08.2019 17:00:00 26,4 14,2 4 2 16 8 NNE 1024,1 60 0,0
23.08.2019 16:00:00 25,9 13,5 6 4 17 9 NNE 1024,7 60 0,0
23.08.2019 15:00:00 25,6 14,3 5 3 11 6 N 1025,2 60 0,0
23.08.2019 14:00:00 24,5 13,4 4 2 11 6 NNE 1025,7 60 0,0
23.08.2019 13:00:00 23,9 12,5 5 3 13 7 ENE 1026,3 60 0,0
23.08.2019 12:00:00 22,7 14,7 4 2 10 6 NNE 1026,8 60 0,0
23.08.2019 11:00:00 21,2 14,3 6 3 11 6 E 1026,7 60 0,0
23.08.2019 10:00:00 19,1 15,5 4 2 6 3 ENE 1026,9 60 0,0
23.08.2019 09:00:00 14,0 13,1 0 0 2 1 N 1026,9 60 0,0
23.08.2019 08:00:00 10,2 9,7 0 0 3 2 N 1026,7 36 0,0
23.08.2019 07:00:00 8,8 8,8 0 0 6 4 N 1026,6 0 0,0
23.08.2019 06:00:00 9,1 9,0 0 0 2 1 N 1026,6 0 0,0
23.08.2019 05:00:00 9,5 9,4 0 0 4 2 N 1026,6 0 0,0
23.08.2019 04:00:00 10,5 10,4 4 2 5 3 ESE 1026,6 0 0,0
23.08.2019 03:00:00 10,3 10,3 0 0 1 0 N 1026,9 0 0,0
23.08.2019 02:00:00 11,1 10,8 0 0 4 2 N 1027,0 0 0,0
23.08.2019 01:00:00 11,7 11,2 0 0 4 2 N 1027,0 0 0,0
23.08.2019 00:00:00 12,9 12,3 0 0 3 1 N 1026,5 0 0,0
22.08.2019 23:00:00 14,2 13,2 0 0 3 2 N 1026,3 0 0,0
22.08.2019 22:00:00 15,9 13,6 0 0 9 5 N 1026,1 0 0,0
22.08.2019 21:00:00 19,5 13,8 5 3 10 6 NNW 1025,7 1 0,0
22.08.2019 20:00:00 22,4 12,0 4 2 9 5 W 1025,1 57 0,0
22.08.2019 19:00:00 24,2 12,1 4 2 16 9 SW 1025,0 60 0,0
22.08.2019 18:00:00 24,8 12,0 5 3 12 7 WSW 1025,0 60 0,0
22.08.2019 17:00:00 24,6 11,0 8 4 14 8 SW 1025,2 60 0,0
22.08.2019 16:00:00 24,6 10,2 8 4 24 13 WSW 1025,3 60 0,0
22.08.2019 15:00:00 24,2 9,9 8 4 18 10 WSW 1025,8 60 0,0
22.08.2019 14:00:00 23,9 11,7 7 4 16 9 WSW 1026,1 60 0,0
22.08.2019 13:00:00 23,0 12,2 7 4 14 8 SW 1026,3 60 0,0
22.08.2019 12:00:00 21,6 13,4 7 4 13 7 WSW 1026,6 60 0,0
22.08.2019 11:00:00 19,7 13,8 5 3 10 6 SSW 1026,5 60 0,0
22.08.2019 10:00:00 17,0 13,5 5 3 8 4 S 1026,4 60 0,0
22.08.2019 09:00:00 14,3 13,0 5 3 8 4 S 1026,4 60 0,0
22.08.2019 08:00:00 11,1 10,5 4 2 5 3 S 1026,1 41 0,0
22.08.2019 07:00:00 8,1 8,1 0 0 4 2 N 1025,6 0 0,0
22.08.2019 06:00:00 8,2 8,2 0 0 1 1 N 1025,6 0 0,0
22.08.2019 05:00:00 8,8 8,8 0 0 4 2 N 1025,9 0 0,0
22.08.2019 04:00:00 9,3 9,1 4 2 4 2 ESE 1026,0 0 0,0
22.08.2019 03:00:00 10,0 9,8 0 0 3 1 N 1026,2 0 0,0
22.08.2019 02:00:00 10,5 10,2 0 0 3 1 N 1026,7 0 0,0
22.08.2019 01:00:00 11,0 10,7 0 0 3 2 N 1026,9 0 0,0
22.08.2019 00:00:00 11,8 11,2 0 0 4 2 N 1027,3 0 0,0
21.08.2019 23:00:00 12,2 11,2 4 2 3 2 ESE 1027,0 0 0,0
21.08.2019 22:00:00 13,8 12,7 0 0 1 0 N 1027,1 0 0,0
21.08.2019 21:00:00 16,7 13,6 0 0 3 2 N 1026,9 6 0,0
21.08.2019 20:00:00 19,7 12,4 0 0 4 2 N 1026,7 60 0,0
21.08.2019 19:00:00 21,9 11,2 0 0 4 2 N 1026,6 60 0,0
21.08.2019 18:00:00 21,6 10,5 0 0 6 4 N 1027,1 60 0,0
21.08.2019 17:00:00 22,0 9,5 4 2 10 6 W 1027,6 60 0,0
21.08.2019 16:00:00 21,7 8,8 4 2 10 5 SSE 1027,8 60 0,0
21.08.2019 15:00:00 21,0 9,4 4 2 11 6 S 1028,3 53 0,0
21.08.2019 14:00:00 20,3 9,7 7 4 13 7 ESE 1028,5 55 0,0
21.08.2019 13:00:00 20,2 9,2 8 4 14 7 S 1029,0 58 0,0
21.08.2019 12:00:00 20,0 11,9 5 3 11 6 S 1029,5 60 0,0
21.08.2019 11:00:00 18,3 12,3 6 3 9 5 SE 1029,7 60 0,0
21.08.2019 10:00:00 16,1 13,0 4 2 6 4 S 1029,5 60 0,0
21.08.2019 09:00:00 13,1 12,4 4 2 5 3 S 1029,4 60 0,0
21.08.2019 08:00:00 10,1 9,4 4 2 4 2 E 1029,3 29 0,0
21.08.2019 07:00:00 8,0 7,5 0 0 3 2 N 1029,0 0 0,0
21.08.2019 06:00:00 7,4 7,4 0 0 3 1 N 1028,5 0 0,0
21.08.2019 05:00:00 8,0 7,8 0 0 3 1 N 1028,4 0 0,0
21.08.2019 04:00:00 8,2 8,1 0 0 3 1 N 1028,3 0 0,0
21.08.2019 03:00:00 8,9 8,8 0 0 1 0 N 1028,1 0 0,0
21.08.2019 02:00:00 9,6 9,1 0 0 1 0 N 1028,0 0 0,0
21.08.2019 01:00:00 10,5 10,0 0 0 3 1 N 1027,8 0 0,0
21.08.2019 00:00:00 11,1 10,1 0 0 3 1 N 1027,5 0 0,0
20.08.2019 23:00:00 12,7 11,5 0 0 4 2 N 1026,9 0 0,0
20.08.2019 22:00:00 13,7 11,4 0 0 5 3 N 1026,5 0 0,0
20.08.2019 21:00:00 16,5 11,3 4 2 8 5 NW 1026,0 0 0,0
20.08.2019 20:00:00 18,4 8,4 4 2 19 10 WNW 1025,3 37 0,0
20.08.2019 19:00:00 20,1 11,0 8 5 22 12 WNW 1024,4 46 0,0
20.08.2019 18:00:00 20,9 11,9 9 5 19 10 NW 1024,2 45 0,0
20.08.2019 17:00:00 20,3 11,9 5 3 22 12 W 1023,8 33 0,6
20.08.2019 16:00:00 19,8 10,4 11 6 27 15 SW 1023,3 45 0,0
20.08.2019 15:00:00 21,7 11,8 11 6 22 12 WSW 1023,0 57 0,0
20.08.2019 14:00:00 21,1 11,9 11 6 27 15 WSW 1023,1 53 0,0
20.08.2019 13:00:00 20,0 11,7 11 6 25 14 SSW 1023,3 57 0,0
20.08.2019 12:00:00 19,3 13,2 9 5 19 11 WSW 1023,0 56 0,0
20.08.2019 11:00:00 17,4 13,6 10 5 20 11 WSW 1023,1 53 0,0
20.08.2019 10:00:00 16,7 14,0 8 4 14 8 SW 1023,0 60 0,0
20.08.2019 09:00:00 14,5 12,8 6 3 13 7 SW 1022,4 60 0,0
20.08.2019 08:00:00 12,5 11,6 7 4 11 6 SSW 1022,4 33 0,0
20.08.2019 07:00:00 11,3 10,5 5 3 9 5 SSW 1021,7 0 0,0
20.08.2019 06:00:00 11,8 10,8 5 3 8 5 SSW 1021,2 0 0,0
20.08.2019 05:00:00 12,0 10,6 4 2 9 5 SSW 1021,2 0 0,0
20.08.2019 04:00:00 11,9 10,1 4 2 8 4 SSW 1021,0 0 0,0
20.08.2019 03:00:00 12,5 9,8 4 2 11 6 SSW 1020,8 0 0,0
20.08.2019 02:00:00 13,7 10,1 4 2 16 9 SSW 1020,8 0 0,0
20.08.2019 01:00:00 13,7 9,7 5 3 12 7 SW 1020,4 0 0,0
20.08.2019 00:00:00 13,7 9,8 4 2 11 6 SW 1020,0 0 0,0
19.08.2019 23:00:00 15,0 10,0 5 3 13 7 SW 1019,7 0 0,0
19.08.2019 22:00:00 15,4 10,5 5 3 11 6 SW 1019,2 0 0,0
19.08.2019 21:00:00 17,4 10,7 4 2 18 10 SW 1018,7 10 0,0
19.08.2019 20:00:00 18,8 10,4 11 6 31 17 SW 1018,1 59 0,0
19.08.2019 19:00:00 20,0 11,0 10 6 27 15 SW 1017,8 54 0,0
19.08.2019 18:00:00 20,5 12,1 14 7 31 17 SSW 1017,7 35 0,0
19.08.2019 17:00:00 20,4 10,4 16 8 31 17 SW 1017,6 37 0,0
19.08.2019 16:00:00 21,4 11,4 12 6 31 17 WSW 1017,5 55 0,0
19.08.2019 15:00:00 19,9 12,5 12 7 27 14 WSW 1017,2 6 0,0
19.08.2019 14:00:00 20,6 13,0 11 6 31 17 WSW 1016,8 33 0,0
19.08.2019 13:00:00 19,1 11,7 14 8 29 16 WSW 1016,6 32 0,0
19.08.2019 12:00:00 18,4 12,4 11 6 31 17 SW 1016,3 49 0,0
19.08.2019 11:00:00 18,2 13,1 13 7 25 14 SW 1016,1 59 0,0
19.08.2019 10:00:00 16,6 13,3 11 6 25 14 SW 1015,7 60 0,0
19.08.2019 09:00:00 14,8 12,3 11 6 21 12 SW 1015,5 60 0,0
19.08.2019 08:00:00 13,7 11,8 7 4 19 10 SSW 1015,2 30 0,0
19.08.2019 07:00:00 13,0 11,5 7 4 16 8 SSW 1014,4 0 0,0
19.08.2019 06:00:00 12,9 11,5 6 3 17 9 SSW 1014,0 0 0,0
19.08.2019 05:00:00 13,2 11,5 8 4 14 8 S 1013,4 0 0,0
19.08.2019 04:00:00 13,5 11,4 8 4 18 10 SSW 1013,4 0 0,0
19.08.2019 03:00:00 13,5 11,0 7 4 14 8 SSW 1013,1 0 0,0
19.08.2019 02:00:00 12,9 10,3 7 4 20 11 SW 1012,6 0 0,0
19.08.2019 01:00:00 13,5 10,3 6 3 16 8 SW 1012,2 0 0,0
19.08.2019 00:00:00 14,3 10,7 5 3 14 7 SW 1011,8 0 0,0
18.08.2019 23:00:00 14,8 10,9 6 3 15 8 SW 1011,0 0 0,0
18.08.2019 22:00:00 15,7 10,6 5 3 24 13 SW 1010,6 0 0,0
18.08.2019 21:00:00 18,8 11,1 14 7 30 16 W 1009,5 0 0,0
18.08.2019 20:00:00 19,7 14,0 7 4 24 13 SW 1008,8 31 0,0
18.08.2019 19:00:00 19,9 14,9 11 6 23 12 SW 1008,3 24 0,0
18.08.2019 18:00:00 20,2 15,8 10 5 24 13 SW 1008,3 49 0,0
18.08.2019 17:00:00 19,5 16,5 8 4 24 13 WSW 1008,0 29 0,0
18.08.2019 16:00:00 18,5 16,5 9 5 19 10 WSW 1007,7 15 0,0
18.08.2019 15:00:00 17,3 16,5 8 4 14 8 WSW 1006,9 4 0,2
18.08.2019 14:00:00 16,6 15,7 4 2 9 5 SW 1006,3 0 0,0
18.08.2019 13:00:00 16,4 15,1 4 2 6 3 SW 1005,3 0 0,1
18.08.2019 12:00:00 15,9 15,1 4 2 7 4 S 1005,1 0 1,3
18.08.2019 11:00:00 15,9 15,4 6 3 14 7 SE 1004,6 0 2,2
18.08.2019 10:00:00 15,6 15,2 5 3 13 7 SSE 1005,0 0 0,7
18.08.2019 09:00:00 15,5 15,1 7 4 12 7 SSE 1005,3 0 0,5
18.08.2019 08:00:00 15,4 15,1 7 4 9 5 SSE 1005,9 0 0,8
18.08.2019 07:00:00 15,5 15,1 6 3 10 5 S 1006,7 0 0,3
18.08.2019 06:00:00 15,7 15,2 6 4 11 6 S 1006,8 0 0,1
18.08.2019 05:00:00 15,7 15,3 5 3 10 5 S 1007,0 0 0,1
18.08.2019 04:00:00 16,0 15,2 4 2 10 6 SSW 1007,5 0 0,2
18.08.2019 03:00:00 16,3 15,4 6 3 13 7 SW 1007,6 0 0,2
18.08.2019 02:00:00 16,7 15,9 7 4 13 7 SSW 1007,9 0 0,1
18.08.2019 01:00:00 16,8 16,2 4 2 9 5 SW 1008,5 0 0,0
18.08.2019 00:00:00 16,8 16,2 6 3 13 7 SSW 1007,9 0 0,0

tt = Température de l'air
td = dewpoint
ff = Vitesse du vent
fx = gusts
dd = Direction du vent
ppp = reduced air pressure
sd = Ensoleillement
rr = Quantités de précipitations

stations d'obs. à proximité